PNC weather

Ponca City Regional Airport
Ponca City, Oklahoma, United States

Public forecast

Using degrees Fahrenheit for public forecast. Weather courtesy of forecast.io.

METAR (pilot weather report)

Retrieved 2019/06/16 07:53 UTC (33 minutes ago):

KPNC 160753Z AUTO A2985 RMK AO2 LTG DSNT N AND NE SLPNO PWINO $

TAF (pilot weather forecast)

Retrieved 2019/06/16 06:30 UTC (2 hours ago):

TAF KPNC 160528Z 1606/1706 12009KT 6SM -SHRA OVC040 TEMPO 1606/1609 VRB15G25KT 3SM TSRA BKN030CB FM161100 07009KT P6SM BKN050 OVC120 AMD NOT SKED